createdAt,value
2022-10-25T00:01:51.529Z,15.07
2022-10-25T00:16:53.121Z,15.04
2022-10-25T00:31:54.565Z,14.53
2022-10-25T00:46:56.007Z,13.85
2022-10-25T01:01:57.714Z,13.70
2022-10-25T01:17:02.282Z,13.84
2022-10-25T01:32:09.081Z,13.39
2022-10-25T01:47:18.616Z,13.56
2022-10-25T02:02:32.908Z,13.54
2022-10-25T02:17:37.129Z,13.45
2022-10-25T02:32:38.657Z,13.49
2022-10-25T02:47:40.166Z,13.24
2022-10-25T03:02:41.623Z,13.01
2022-10-25T03:17:43.055Z,13.07
2022-10-25T03:32:44.474Z,12.95
2022-10-25T03:47:46.597Z,12.97
2022-10-25T04:02:48.348Z,12.83
2022-10-25T04:17:50.542Z,11.66
2022-10-25T04:32:52.251Z,12.57
2022-10-25T04:47:53.897Z,12.91
2022-10-25T05:02:55.698Z,13.00
2022-10-25T05:17:58.015Z,12.94
2022-10-25T05:33:02.743Z,13.97
2022-10-25T05:48:06.251Z,15.37
2022-10-25T06:03:07.732Z,18.26
2022-10-25T06:18:09.164Z,17.25
2022-10-25T06:33:10.606Z,18.95
2022-10-25T06:48:12.062Z,20.96
2022-10-25T07:03:13.602Z,20.38
2022-10-25T07:18:15.342Z,18.95
2022-10-25T07:33:18.037Z,21.22
2022-10-25T07:48:19.897Z,20.62
2022-10-25T08:03:21.395Z,22.37
2022-10-25T08:18:23.644Z,21.64
2022-10-25T08:33:25.142Z,24.34
2022-10-25T08:48:46.827Z,22.45
2022-10-25T09:03:48.303Z,24.98
2022-10-25T09:18:51.000Z,24.07
2022-10-25T09:34:04.446Z,23.85
2022-10-25T09:49:13.738Z,25.80
2022-10-25T10:04:27.498Z,28.72
2022-10-25T10:19:30.107Z,26.85
2022-10-25T10:34:51.780Z,25.62
2022-10-25T10:49:53.391Z,25.75
2022-10-25T11:04:55.666Z,26.15
2022-10-25T11:20:08.511Z,26.50
2022-10-25T11:35:30.209Z,26.23
2022-10-25T11:50:43.261Z,25.65
2022-10-25T12:05:44.766Z,26.41
2022-10-25T12:20:47.819Z,26.71
2022-10-25T12:35:50.802Z,26.54
2022-10-25T12:50:52.206Z,26.75
2022-10-25T13:06:12.235Z,26.41
2022-10-25T13:21:15.371Z,25.91
2022-10-25T13:36:16.837Z,25.37
2022-10-25T13:51:18.523Z,23.78
2022-10-25T14:06:23.043Z,22.81
2022-10-25T14:21:25.969Z,22.90
2022-10-25T14:36:27.462Z,22.12
2022-10-25T14:51:33.979Z,22.02
2022-10-25T15:06:35.507Z,21.34
2022-10-25T15:21:43.002Z,21.21
2022-10-25T15:36:44.474Z,21.08
2022-10-25T15:51:46.232Z,19.82
2022-10-25T16:06:48.252Z,21.19
2022-10-25T16:21:49.762Z,21.31
2022-10-25T16:36:52.615Z,21.41
2022-10-25T16:51:54.090Z,21.08
2022-10-25T17:06:55.523Z,22.19
2022-10-25T17:21:57.009Z,21.28
2022-10-25T17:37:00.237Z,21.42
2022-10-25T17:52:02.791Z,21.43
2022-10-25T18:07:04.237Z,21.04
2022-10-25T18:22:05.702Z,20.81
2022-10-25T18:37:07.219Z,19.96
2022-10-25T18:52:09.217Z,20.27
2022-10-25T19:07:10.646Z,20.02
2022-10-25T19:22:12.104Z,20.15
2022-10-25T19:37:13.590Z,20.06
2022-10-25T19:52:15.075Z,19.40
2022-10-25T20:07:16.860Z,19.05
2022-10-25T20:22:18.325Z,19.15
2022-10-25T20:37:19.842Z,19.26
2022-10-25T20:52:21.797Z,18.65
2022-10-25T21:07:23.294Z,18.28
2022-10-25T21:22:24.861Z,18.04
2022-10-25T21:37:26.712Z,17.90
2022-10-25T21:52:28.158Z,17.97
2022-10-25T22:16:12.852Z,17.72
2022-10-25T22:31:15.922Z,17.52
2022-10-25T22:46:22.143Z,17.11
2022-10-25T23:01:25.067Z,17.29
2022-10-25T23:16:26.785Z,17.31
2022-10-25T23:31:28.866Z,17.44
2022-10-25T23:46:30.340Z,17.36
